sensor_id;sensor_type;location;lat;lon;timestamp;pressure;altitude;pressure_sealevel;temperature;humidity
28354;BME280;15603;50.878;8.036;2023-02-02T00:01:23;143987.78;;;3.06;100.00
28354;BME280;15603;50.878;8.036;2023-02-02T00:03:50;144007.16;;;3.14;100.00
28354;BME280;15603;50.878;8.036;2023-02-02T00:06:22;144009.56;;;3.15;100.00
28354;BME280;15603;50.878;8.036;2023-02-02T00:08:49;144014.41;;;3.17;100.00
28354;BME280;15603;50.878;8.036;2023-02-02T00:11:17;144024.06;;;3.21;100.00
28354;BME280;15603;50.878;8.036;2023-02-02T00:13:44;144033.78;;;3.25;100.00
28354;BME280;15603;50.878;8.036;2023-02-02T00:16:34;144021.66;;;3.20;100.00
28354;BME280;15603;50.878;8.036;2023-02-02T00:19:09;144022.88;;;3.21;100.00
28354;BME280;15603;50.878;8.036;2023-02-02T00:21:36;144026.50;;;3.22;100.00
28354;BME280;15603;50.878;8.036;2023-02-02T00:24:06;144028.91;;;3.23;100.00
28354;BME280;15603;50.878;8.036;2023-02-02T00:26:33;144010.75;;;3.15;100.00
28354;BME280;15603;50.878;8.036;2023-02-02T00:29:01;143978.13;;;3.02;100.00
28354;BME280;15603;50.878;8.036;2023-02-02T00:31:29;143960.00;;;2.94;100.00
28354;BME280;15603;50.878;8.036;2023-02-02T00:33:56;143829.50;;;2.39;100.00
28354;BME280;15603;50.878;8.036;2023-02-02T00:36:23;143883.84;;;2.62;100.00
28354;BME280;15603;50.878;8.036;2023-02-02T00:38:50;143966.06;;;2.97;100.00
28354;BME280;15603;50.878;8.036;2023-02-02T00:41:19;143958.81;;;2.93;100.00
28354;BME280;15603;50.878;8.036;2023-02-02T00:43:46;143970.91;;;2.99;100.00
28354;BME280;15603;50.878;8.036;2023-02-02T00:46:33;143978.13;;;3.02;100.00
28354;BME280;15603;50.878;8.036;2023-02-02T00:49:00;143831.94;;;2.40;100.00
28354;BME280;15603;50.878;8.036;2023-02-02T00:51:27;144004.72;;;3.13;100.00
28354;BME280;15603;50.878;8.036;2023-02-02T00:53:54;143956.38;;;2.92;100.00
28354;BME280;15603;50.878;8.036;2023-02-02T00:56:21;144009.56;;;3.15;100.00
28354;BME280;15603;50.878;8.036;2023-02-02T00:58:48;143997.50;;;3.10;100.00
28354;BME280;15603;50.878;8.036;2023-02-02T01:01:16;144015.63;;;3.18;100.00
28354;BME280;15603;50.878;8.036;2023-02-02T01:03:44;143985.41;;;3.05;100.00
28354;BME280;15603;50.878;8.036;2023-02-02T01:06:11;143888.75;;;2.64;100.00
28354;BME280;15603;50.878;8.036;2023-02-02T01:08:38;144026.50;;;3.22;100.00
28354;BME280;15603;50.878;8.036;2023-02-02T01:11:06;143881.47;;;2.61;100.00
28354;BME280;15603;50.878;8.036;2023-02-02T01:13:34;143985.41;;;3.05;100.00
28354;BME280;15603;50.878;8.036;2023-02-02T01:16:02;144028.91;;;3.23;100.00
28354;BME280;15603;50.878;8.036;2023-02-02T01:18:29;144030.13;;;3.24;100.00
28354;BME280;15603;50.878;8.036;2023-02-02T01:21:03;144066.41;;;3.39;100.00
28354;BME280;15603;50.878;8.036;2023-02-02T01:23:32;144001.09;;;3.11;100.00
28354;BME280;15603;50.878;8.036;2023-02-02T01:26:01;144065.16;;;3.39;100.00
28354;BME280;15603;50.878;8.036;2023-02-02T01:28:31;143961.25;;;2.94;100.00
28354;BME280;15603;50.878;8.036;2023-02-02T01:31:00;143973.31;;;3.00;100.00
28354;BME280;15603;50.878;8.036;2023-02-02T01:33:31;144070.03;;;3.41;100.00
28354;BME280;15603;50.878;8.036;2023-02-02T01:36:03;144090.56;;;3.49;100.00
28354;BME280;15603;50.878;8.036;2023-02-02T01:38:30;144103.88;;;3.55;100.00
28354;BME280;15603;50.878;8.036;2023-02-02T01:41:00;144091.78;;;3.50;100.00
28354;BME280;15603;50.878;8.036;2023-02-02T01:46:16;144123.22;;;3.63;100.00
28354;BME280;15603;50.878;8.036;2023-02-02T01:48:47;144125.66;;;3.64;100.00
28354;BME280;15603;50.878;8.036;2023-02-02T01:51:18;144086.94;;;3.48;100.00
28354;BME280;15603;50.878;8.036;2023-02-02T01:53:48;144106.31;;;3.56;100.00
28354;BME280;15603;50.878;8.036;2023-02-02T01:56:25;144021.66;;;3.20;100.00
28354;BME280;15603;50.878;8.036;2023-02-02T01:58:55;144077.28;;;3.44;100.00
28354;BME280;15603;50.878;8.036;2023-02-02T02:01:25;143949.13;;;2.89;100.00
28354;BME280;15603;50.878;8.036;2023-02-02T02:03:52;143951.53;;;2.90;100.00
28354;BME280;15603;50.878;8.036;2023-02-02T02:06:20;143985.41;;;3.05;100.00
28354;BME280;15603;50.878;8.036;2023-02-02T02:09:02;144044.63;;;3.30;100.00
28354;BME280;15603;50.878;8.036;2023-02-02T02:11:31;144099.03;;;3.53;100.00
28354;BME280;15603;50.878;8.036;2023-02-02T02:14:01;144080.91;;;3.45;100.00
28354;BME280;15603;50.878;8.036;2023-02-02T02:17:09;144117.19;;;3.61;100.00
28354;BME280;15603;50.878;8.036;2023-02-02T02:35:17;144163.13;;;3.80;100.00
28354;BME280;15603;50.878;8.036;2023-02-02T02:37:50;144065.16;;;3.39;100.00
28354;BME280;15603;50.878;8.036;2023-02-02T02:41:02;144142.59;;;3.71;100.00
28354;BME280;15603;50.878;8.036;2023-02-02T02:43:36;144078.47;;;3.44;100.00
28354;BME280;15603;50.878;8.036;2023-02-02T02:46:06;144103.88;;;3.55;100.00
28354;BME280;15603;50.878;8.036;2023-02-02T02:48:35;144183.72;;;3.89;100.00
28354;BME280;15603;50.878;8.036;2023-02-02T02:54:04;144131.69;;;3.67;100.00
28354;BME280;15603;50.878;8.036;2023-02-02T02:56:43;144165.56;;;3.81;100.00
28354;BME280;15603;50.878;8.036;2023-02-02T02:59:23;144174.00;;;3.85;100.00
28354;BME280;15603;50.878;8.036;2023-02-02T03:04:54;144206.69;;;3.99;100.00
28354;BME280;15603;50.878;8.036;2023-02-02T03:07:52;144205.44;;;3.98;100.00
28354;BME280;15603;50.878;8.036;2023-02-02T03:10:20;144094.22;;;3.51;100.00
28354;BME280;15603;50.878;8.036;2023-02-02T03:12:50;144220.00;;;4.04;100.00
28354;BME280;15603;50.878;8.036;2023-02-02T03:15:18;144236.91;;;4.11;100.00
28354;BME280;15603;50.878;8.036;2023-02-02T03:17:46;144148.63;;;3.74;100.00
28354;BME280;15603;50.878;8.036;2023-02-02T03:20:15;144229.66;;;4.08;100.00
28354;BME280;15603;50.878;8.036;2023-02-02T03:22:42;144222.41;;;4.05;100.00
28354;BME280;15603;50.878;8.036;2023-02-02T03:25:09;144234.50;;;4.10;100.00
28354;BME280;15603;50.878;8.036;2023-02-02T03:27:37;144236.91;;;4.11;100.00
28354;BME280;15603;50.878;8.036;2023-02-02T03:30:10;144227.22;;;4.07;100.00
28354;BME280;15603;50.878;8.036;2023-02-02T03:32:38;144244.19;;;4.15;100.00
28354;BME280;15603;50.878;8.036;2023-02-02T03:35:06;144244.19;;;4.15;100.00
28354;BME280;15603;50.878;8.036;2023-02-02T03:37:33;144172.81;;;3.84;100.00
28354;BME280;15603;50.878;8.036;2023-02-02T03:40:00;144176.44;;;3.86;100.00
28354;BME280;15603;50.878;8.036;2023-02-02T03:42:27;144240.53;;;4.13;100.00
28354;BME280;15603;50.878;8.036;2023-02-02T03:44:54;144263.53;;;4.23;100.00
28354;BME280;15603;50.878;8.036;2023-02-02T03:47:21;144263.53;;;4.23;100.00
28354;BME280;15603;50.878;8.036;2023-02-02T03:49:48;144274.44;;;4.27;100.00
28354;BME280;15603;50.878;8.036;2023-02-02T03:52:15;144299.81;;;4.38;100.00
28354;BME280;15603;50.878;8.036;2023-02-02T03:54:42;144336.13;;;4.53;100.00
28354;BME280;15603;50.878;8.036;2023-02-02T03:57:09;144299.81;;;4.38;100.00
28354;BME280;15603;50.878;8.036;2023-02-02T03:59:36;144217.56;;;4.03;100.00
28354;BME280;15603;50.878;8.036;2023-02-02T04:02:03;144328.88;;;4.50;100.00
28354;BME280;15603;50.878;8.036;2023-02-02T04:04:30;144347.03;;;4.58;100.00
28354;BME280;15603;50.878;8.036;2023-02-02T04:06:57;144307.09;;;4.41;100.00
28354;BME280;15603;50.878;8.036;2023-02-02T04:09:24;144314.34;;;4.44;100.00
28354;BME280;15603;50.878;8.036;2023-02-02T04:11:52;144365.19;;;4.66;100.00
28354;BME280;15603;50.878;8.036;2023-02-02T04:14:19;144224.84;;;4.06;100.00
28354;BME280;15603;50.878;8.036;2023-02-02T04:16:46;144388.19;;;4.76;100.00
28354;BME280;15603;50.878;8.036;2023-02-02T04:19:13;144418.41;;;4.88;100.00
28354;BME280;15603;50.878;8.036;2023-02-02T04:21:40;144401.50;;;4.81;100.00
28354;BME280;15603;50.878;8.036;2023-02-02T04:24:11;144424.50;;;4.91;100.00
28354;BME280;15603;50.878;8.036;2023-02-02T04:26:39;144449.88;;;5.02;100.00
28354;BME280;15603;50.878;8.036;2023-02-02T04:29:06;144503.16;;;5.24;100.00
28354;BME280;15603;50.878;8.036;2023-02-02T04:31:34;144495.88;;;5.21;100.00
28354;BME280;15603;50.878;8.036;2023-02-02T04:34:01;144503.16;;;5.24;100.00
28354;BME280;15603;50.878;8.036;2023-02-02T04:36:28;144509.22;;;5.27;100.00
28354;BME280;15603;50.878;8.036;2023-02-02T04:38:55;144498.31;;;5.22;100.00
28354;BME280;15603;50.878;8.036;2023-02-02T04:41:23;144541.88;;;5.41;100.00
28354;BME280;15603;50.878;8.036;2023-02-02T04:43:50;144449.88;;;5.02;100.00
28354;BME280;15603;50.878;8.036;2023-02-02T04:46:17;144575.81;;;5.55;100.00
28354;BME280;15603;50.878;8.036;2023-02-02T04:48:47;144541.88;;;5.41;100.00
28354;BME280;15603;50.878;8.036;2023-02-02T04:51:14;144570.97;;;5.53;100.00
28354;BME280;15603;50.878;8.036;2023-02-02T04:53:41;144440.22;;;4.98;100.00
28354;BME280;15603;50.878;8.036;2023-02-02T04:56:13;144561.31;;;5.49;100.00
28354;BME280;15603;50.878;8.036;2023-02-02T04:58:40;144583.09;;;5.58;100.00
28354;BME280;15603;50.878;8.036;2023-02-02T05:01:16;144587.94;;;5.60;100.00
28354;BME280;15603;50.878;8.036;2023-02-02T05:03:44;144592.78;;;5.62;100.00
28354;BME280;15603;50.878;8.036;2023-02-02T05:09:31;144540.69;;;5.40;100.00
28354;BME280;15603;50.878;8.036;2023-02-02T05:11:59;144614.56;;;5.71;100.00
28354;BME280;15603;50.878;8.036;2023-02-02T05:14:26;144607.31;;;5.68;100.00
28354;BME280;15603;50.878;8.036;2023-02-02T05:16:53;144610.97;;;5.70;100.00
28354;BME280;15603;50.878;8.036;2023-02-02T05:19:20;144555.22;;;5.46;100.00
28354;BME280;15603;50.878;8.036;2023-02-02T05:21:47;144577.03;;;5.56;100.00
28354;BME280;15603;50.878;8.036;2023-02-02T05:24:17;144618.19;;;5.73;100.00
28354;BME280;15603;50.878;8.036;2023-02-02T05:26:50;144640.00;;;5.82;100.00
28354;BME280;15603;50.878;8.036;2023-02-02T05:29:19;144626.69;;;5.77;100.00
28354;BME280;15603;50.878;8.036;2023-02-02T05:31:46;144539.50;;;5.40;100.00
28354;BME280;15603;50.878;8.036;2023-02-02T05:34:13;144587.94;;;5.60;100.00
28354;BME280;15603;50.878;8.036;2023-02-02T05:36:41;144529.81;;;5.36;100.00
28354;BME280;15603;50.878;8.036;2023-02-02T05:39:08;144607.31;;;5.68;100.00
28354;BME280;15603;50.878;8.036;2023-02-02T05:41:35;144535.84;;;5.38;100.00
28354;BME280;15603;50.878;8.036;2023-02-02T05:44:03;144635.16;;;5.80;100.00
28354;BME280;15603;50.878;8.036;2023-02-02T05:46:37;144569.78;;;5.53;100.00
28354;BME280;15603;50.878;8.036;2023-02-02T05:49:11;144614.56;;;5.71;100.00
28354;BME280;15603;50.878;8.036;2023-02-02T05:51:44;144600.03;;;5.65;100.00
28354;BME280;15603;50.878;8.036;2023-02-02T05:54:12;144633.97;;;5.80;100.00
28354;BME280;15603;50.878;8.036;2023-02-02T05:56:46;144623.03;;;5.75;100.00
28354;BME280;15603;50.878;8.036;2023-02-02T05:59:13;144592.78;;;5.62;100.00
28354;BME280;15603;50.878;8.036;2023-02-02T06:01:40;144624.28;;;5.76;100.00
28354;BME280;15603;50.878;8.036;2023-02-02T06:04:08;144491.03;;;5.19;100.00
28354;BME280;15603;50.878;8.036;2023-02-02T06:06:35;144646.06;;;5.85;100.00
28354;BME280;15603;50.878;8.036;2023-02-02T06:09:05;144638.81;;;5.82;100.00
28354;BME280;15603;50.878;8.036;2023-02-02T06:11:33;144627.88;;;5.77;100.00
28354;BME280;15603;50.878;8.036;2023-02-02T06:14:00;144629.13;;;5.78;100.00
28354;BME280;15603;50.878;8.036;2023-02-02T06:16:27;144629.13;;;5.78;100.00
28354;BME280;15603;50.878;8.036;2023-02-02T06:18:55;144636.38;;;5.81;100.00
28354;BME280;15603;50.878;8.036;2023-02-02T06:21:22;144648.50;;;5.86;100.00
28354;BME280;15603;50.878;8.036;2023-02-02T06:23:51;144648.50;;;5.86;100.00
28354;BME280;15603;50.878;8.036;2023-02-02T06:26:18;144659.38;;;5.90;100.00
28354;BME280;15603;50.878;8.036;2023-02-02T06:28:50;144663.03;;;5.92;100.00
28354;BME280;15603;50.878;8.036;2023-02-02T06:31:18;144661.81;;;5.92;100.00
28354;BME280;15603;50.878;8.036;2023-02-02T06:33:46;144621.84;;;5.75;100.00
28354;BME280;15603;50.878;8.036;2023-02-02T06:36:14;144546.78;;;5.43;100.00
28354;BME280;15603;50.878;8.036;2023-02-02T06:38:41;144493.50;;;5.20;100.00
28354;BME280;15603;50.878;8.036;2023-02-02T06:41:08;144655.78;;;5.89;100.00
28354;BME280;15603;50.878;8.036;2023-02-02T06:43:35;144655.78;;;5.89;100.00
28354;BME280;15603;50.878;8.036;2023-02-02T06:46:02;144528.63;;;5.35;100.00
28354;BME280;15603;50.878;8.036;2023-02-02T06:48:29;144609.72;;;5.69;100.00
28354;BME280;15603;50.878;8.036;2023-02-02T06:50:57;144674.00;;;5.97;100.00
28354;BME280;15603;50.878;8.036;2023-02-02T06:53:25;144667.88;;;5.94;100.00
28354;BME280;15603;50.878;8.036;2023-02-02T06:56:00;144650.91;;;5.87;100.00
28354;BME280;15603;50.878;8.036;2023-02-02T06:58:28;144655.78;;;5.89;100.00
28354;BME280;15603;50.878;8.036;2023-02-02T07:01:08;144617.00;;;5.73;100.00
28354;BME280;15603;50.878;8.036;2023-02-02T07:03:35;144667.88;;;5.94;100.00
28354;BME280;15603;50.878;8.036;2023-02-02T07:06:10;144585.50;;;5.59;100.00
28354;BME280;15603;50.878;8.036;2023-02-02T07:08:37;144551.63;;;5.45;100.00
28354;BME280;15603;50.878;8.036;2023-02-02T07:11:05;144581.88;;;5.58;100.00
28354;BME280;15603;50.878;8.036;2023-02-02T07:13:46;144664.22;;;5.93;100.00
28354;BME280;15603;50.878;8.036;2023-02-02T07:16:15;144672.75;;;5.96;100.00
28354;BME280;15603;50.878;8.036;2023-02-02T07:18:42;144666.66;;;5.94;100.00
28354;BME280;15603;50.878;8.036;2023-02-02T07:21:16;144661.81;;;5.92;100.00
28354;BME280;15603;50.878;8.036;2023-02-02T07:23:44;144609.72;;;5.69;100.00
28354;BME280;15603;50.878;8.036;2023-02-02T07:26:12;144677.59;;;5.98;100.00
28354;BME280;15603;50.878;8.036;2023-02-02T07:28:41;144646.06;;;5.85;100.00
28354;BME280;15603;50.878;8.036;2023-02-02T07:31:13;144680.03;;;5.99;100.00
28354;BME280;15603;50.878;8.036;2023-02-02T07:33:42;144687.28;;;6.02;100.00
28354;BME280;15603;50.878;8.036;2023-02-02T07:36:10;144646.06;;;5.85;100.00
28354;BME280;15603;50.878;8.036;2023-02-02T07:38:37;144624.28;;;5.76;100.00
28354;BME280;15603;50.878;8.036;2023-02-02T07:41:04;144619.44;;;5.74;100.00
28354;BME280;15603;50.878;8.036;2023-02-02T07:43:31;144580.66;;;5.57;100.00
28354;BME280;15603;50.878;8.036;2023-02-02T07:46:00;144629.13;;;5.78;100.00
28354;BME280;15603;50.878;8.036;2023-02-02T07:48:29;144529.81;;;5.36;100.00
28354;BME280;15603;50.878;8.036;2023-02-02T07:51:04;144578.22;;;5.56;100.00
28354;BME280;15603;50.878;8.036;2023-02-02T07:53:32;144667.88;;;5.94;100.00
28354;BME280;15603;50.878;8.036;2023-02-02T07:56:27;144664.22;;;5.93;100.00
28354;BME280;15603;50.878;8.036;2023-02-02T07:58:55;144658.19;;;5.90;100.00
28354;BME280;15603;50.878;8.036;2023-02-02T08:01:23;144677.59;;;5.98;100.00
28354;BME280;15603;50.878;8.036;2023-02-02T08:03:53;144677.59;;;5.98;100.00
28354;BME280;15603;50.878;8.036;2023-02-02T08:08:54;144552.81;;;5.45;100.00
28354;BME280;15603;50.878;8.036;2023-02-02T08:11:22;144638.81;;;5.82;100.00
28354;BME280;15603;50.878;8.036;2023-02-02T08:13:52;144637.59;;;5.81;100.00
28354;BME280;15603;50.878;8.036;2023-02-02T08:16:20;144680.03;;;5.99;100.00
28354;BME280;15603;50.878;8.036;2023-02-02T08:18:47;144566.13;;;5.51;100.00
28354;BME280;15603;50.878;8.036;2023-02-02T08:21:15;144623.03;;;5.75;100.00
28354;BME280;15603;50.878;8.036;2023-02-02T08:23:43;144665.47;;;5.93;100.00
28354;BME280;15603;50.878;8.036;2023-02-02T08:26:23;144650.91;;;5.87;100.00
28354;BME280;15603;50.878;8.036;2023-02-02T08:28:55;144624.28;;;5.76;100.00
28354;BME280;15603;50.878;8.036;2023-02-02T08:31:24;144704.25;;;6.09;100.00
28354;BME280;15603;50.878;8.036;2023-02-02T08:33:52;144638.81;;;5.82;100.00
28354;BME280;15603;50.878;8.036;2023-02-02T08:36:27;144693.38;;;6.05;100.00
28354;BME280;15603;50.878;8.036;2023-02-02T08:38:54;144653.34;;;5.88;100.00
28354;BME280;15603;50.878;8.036;2023-02-02T08:41:22;144689.72;;;6.03;100.00
28354;BME280;15603;50.878;8.036;2023-02-02T08:43:50;144704.25;;;6.09;100.00
28354;BME280;15603;50.878;8.036;2023-02-02T08:46:18;144707.91;;;6.11;100.00
28354;BME280;15603;50.878;8.036;2023-02-02T08:48:47;144697.00;;;6.06;100.00
28354;BME280;15603;50.878;8.036;2023-02-02T08:51:17;144721.22;;;6.17;100.00
28354;BME280;15603;50.878;8.036;2023-02-02T08:53:45;144591.53;;;5.62;100.00
28354;BME280;15603;50.878;8.036;2023-02-02T08:56:18;144629.13;;;5.78;100.00
28354;BME280;15603;50.878;8.036;2023-02-02T08:58:50;144736.97;;;6.23;100.00
28354;BME280;15603;50.878;8.036;2023-02-02T09:03:46;144709.09;;;6.12;100.00
28354;BME280;15603;50.878;8.036;2023-02-02T09:06:16;144726.06;;;6.19;100.00
28354;BME280;15603;50.878;8.036;2023-02-02T09:08:44;144592.78;;;5.62;100.00
28354;BME280;15603;50.878;8.036;2023-02-02T09:11:13;144733.34;;;6.22;100.00
28354;BME280;15603;50.878;8.036;2023-02-02T09:13:43;144683.69;;;6.01;100.00
28354;BME280;15603;50.878;8.036;2023-02-02T09:16:15;144751.53;;;6.29;100.00
28354;BME280;15603;50.878;8.036;2023-02-02T09:18:44;144743.03;;;6.26;100.00
28354;BME280;15603;50.878;8.036;2023-02-02T09:21:14;144762.41;;;6.34;100.00
28354;BME280;15603;50.878;8.036;2023-02-02T09:23:43;144711.53;;;6.13;100.00
28354;BME280;15603;50.878;8.036;2023-02-02T09:26:12;144638.81;;;5.82;100.00
28354;BME280;15603;50.878;8.036;2023-02-02T09:28:42;144733.34;;;6.22;100.00
28354;BME280;15603;50.878;8.036;2023-02-02T09:31:10;144735.75;;;6.23;100.00
28354;BME280;15603;50.878;8.036;2023-02-02T09:33:38;144761.22;;;6.34;100.00
28354;BME280;15603;50.878;8.036;2023-02-02T09:36:13;144774.56;;;6.39;100.00
28354;BME280;15603;50.878;8.036;2023-02-02T09:38:42;144641.22;;;5.83;100.00
28354;BME280;15603;50.878;8.036;2023-02-02T09:47:16;144738.19;;;6.24;100.00
28354;BME280;15603;50.878;8.036;2023-02-02T09:50:14;144747.88;;;6.28;100.00
28354;BME280;15603;50.878;8.036;2023-02-02T09:52:48;144730.91;;;6.21;100.00
28354;BME280;15603;50.878;8.036;2023-02-02T09:57:52;144759.97;;;6.33;100.00
28354;BME280;15603;50.878;8.036;2023-02-02T10:02:49;144767.25;;;6.36;100.00
28354;BME280;15603;50.878;8.036;2023-02-02T10:05:23;144728.50;;;6.20;100.00
28354;BME280;15603;50.878;8.036;2023-02-02T10:07:55;144769.72;;;6.37;100.00
28354;BME280;15603;50.878;8.036;2023-02-02T10:10:34;144716.38;;;6.15;100.00
28354;BME280;15603;50.878;8.036;2023-02-02T10:13:17;144784.25;;;6.43;100.00
28354;BME280;15603;50.878;8.036;2023-02-02T10:15:57;144739.41;;;6.24;100.00
28354;BME280;15603;50.878;8.036;2023-02-02T10:18:47;144808.47;;;6.54;100.00
28354;BME280;15603;50.878;8.036;2023-02-02T10:21:34;144689.72;;;6.03;100.00
28354;BME280;15603;50.878;8.036;2023-02-02T10:24:17;144772.09;;;6.38;100.00
28354;BME280;15603;50.878;8.036;2023-02-02T10:26:55;144767.25;;;6.36;100.00
28354;BME280;15603;50.878;8.036;2023-02-02T10:29:36;144813.31;;;6.56;100.00
28354;BME280;15603;50.878;8.036;2023-02-02T10:32:46;144804.81;;;6.52;100.00
28354;BME280;15603;50.878;8.036;2023-02-02T10:35:34;144819.41;;;6.58;100.00
28354;BME280;15603;50.878;8.036;2023-02-02T10:41:03;144795.13;;;6.48;100.00
28354;BME280;15603;50.878;8.036;2023-02-02T10:46:39;144776.94;;;6.40;100.00
28354;BME280;15603;50.878;8.036;2023-02-02T10:49:10;144835.13;;;6.65;100.00
28354;BME280;15603;50.878;8.036;2023-02-02T10:51:44;144823.00;;;6.60;100.00
28354;BME280;15603;50.878;8.036;2023-02-02T10:54:25;144859.34;;;6.75;100.00
28354;BME280;15603;50.878;8.036;2023-02-02T10:56:57;144681.25;;;6.00;100.00
28354;BME280;15603;50.878;8.036;2023-02-02T10:59:31;144684.88;;;6.01;100.00
28354;BME280;15603;50.878;8.036;2023-02-02T11:01:59;144854.50;;;6.73;100.00
28354;BME280;15603;50.878;8.036;2023-02-02T11:04:41;144869.06;;;6.79;100.00
28354;BME280;15603;50.878;8.036;2023-02-02T11:07:26;144815.75;;;6.57;100.00
28354;BME280;15603;50.878;8.036;2023-02-02T11:09:55;144899.38;;;6.92;100.00
28354;BME280;15603;50.878;8.036;2023-02-02T11:12:43;144915.16;;;6.99;100.00
28354;BME280;15603;50.878;8.036;2023-02-02T11:15:27;144921.19;;;7.01;100.00
28354;BME280;15603;50.878;8.036;2023-02-02T11:17:55;144898.16;;;6.92;100.00
28354;BME280;15603;50.878;8.036;2023-02-02T11:20:33;144880.00;;;6.84;100.00
28354;BME280;15603;50.878;8.036;2023-02-02T11:23:02;144922.41;;;7.02;100.00
28354;BME280;15603;50.878;8.036;2023-02-02T11:25:35;144921.19;;;7.01;100.00
28354;BME280;15603;50.878;8.036;2023-02-02T11:28:10;144929.69;;;7.05;100.00
28354;BME280;15603;50.878;8.036;2023-02-02T11:30:48;144947.88;;;7.13;100.00
28354;BME280;15603;50.878;8.036;2023-02-02T11:33:25;144920.00;;;7.01;100.00
28354;BME280;15603;50.878;8.036;2023-02-02T11:36:17;144915.16;;;6.99;100.00
28354;BME280;15603;50.878;8.036;2023-02-02T11:38:44;144847.28;;;6.70;100.00
28354;BME280;15603;50.878;8.036;2023-02-02T11:41:11;144825.44;;;6.61;100.00
28354;BME280;15603;50.878;8.036;2023-02-02T11:43:49;144898.16;;;6.92;100.00
28354;BME280;15603;50.878;8.036;2023-02-02T11:46:26;144803.63;;;6.52;100.00
28354;BME280;15603;50.878;8.036;2023-02-02T11:49:03;144878.78;;;6.83;100.00
28354;BME280;15603;50.878;8.036;2023-02-02T11:51:34;144823.00;;;6.60;100.00
28354;BME280;15603;50.878;8.036;2023-02-02T11:54:25;144880.00;;;6.84;100.00
28354;BME280;15603;50.878;8.036;2023-02-02T11:56:58;144864.22;;;6.77;100.00
28354;BME280;15603;50.878;8.036;2023-02-02T12:02:28;144876.34;;;6.82;100.00
28354;BME280;15603;50.878;8.036;2023-02-02T12:07:38;144901.81;;;6.93;100.00
28354;BME280;15603;50.878;8.036;2023-02-02T12:10:24;144890.88;;;6.88;100.00
28354;BME280;15603;50.878;8.036;2023-02-02T12:13:24;144893.31;;;6.90;100.00
28354;BME280;15603;50.878;8.036;2023-02-02T12:16:00;144880.00;;;6.84;100.00
28354;BME280;15603;50.878;8.036;2023-02-02T12:21:31;144864.22;;;6.77;100.00
28354;BME280;15603;50.878;8.036;2023-02-02T12:30:06;144831.50;;;6.63;100.00
28354;BME280;15603;50.878;8.036;2023-02-02T12:35:14;144831.50;;;6.63;100.00
28354;BME280;15603;50.878;8.036;2023-02-02T12:38:13;144818.16;;;6.58;100.00
28354;BME280;15603;50.878;8.036;2023-02-02T12:43:43;144859.34;;;6.75;100.00
28354;BME280;15603;50.878;8.036;2023-02-02T12:46:22;144859.34;;;6.75;100.00
28354;BME280;15603;50.878;8.036;2023-02-02T12:52:15;144859.34;;;6.75;100.00
28354;BME280;15603;50.878;8.036;2023-02-02T13:00:28;144869.06;;;6.79;100.00
28354;BME280;15603;50.878;8.036;2023-02-02T13:06:04;144846.03;;;6.69;100.00
28354;BME280;15603;50.878;8.036;2023-02-02T13:08:35;144866.66;;;6.78;100.00
28354;BME280;15603;50.878;8.036;2023-02-02T13:11:10;144873.94;;;6.81;100.00
28354;BME280;15603;50.878;8.036;2023-02-02T13:14:08;144866.66;;;6.78;100.00
28354;BME280;15603;50.878;8.036;2023-02-02T13:16:42;144825.44;;;6.61;100.00
28354;BME280;15603;50.878;8.036;2023-02-02T13:19:30;144912.72;;;6.98;100.00
28354;BME280;15603;50.878;8.036;2023-02-02T13:22:01;144852.13;;;6.72;100.00
28354;BME280;15603;50.878;8.036;2023-02-02T13:24:30;144888.47;;;6.87;100.00
28354;BME280;15603;50.878;8.036;2023-02-02T13:27:01;144878.78;;;6.83;100.00
28354;BME280;15603;50.878;8.036;2023-02-02T13:32:20;144859.34;;;6.75;100.00
28354;BME280;15603;50.878;8.036;2023-02-02T13:35:00;144807.25;;;6.53;100.00
28354;BME280;15603;50.878;8.036;2023-02-02T13:40:38;144876.34;;;6.82;100.00
28354;BME280;15603;50.878;8.036;2023-02-02T13:51:48;144893.31;;;6.90;100.00
28354;BME280;15603;50.878;8.036;2023-02-02T14:02:54;144906.66;;;6.95;100.00
28354;BME280;15603;50.878;8.036;2023-02-02T14:05:28;144825.44;;;6.61;100.00
28354;BME280;15603;50.878;8.036;2023-02-02T14:08:03;144929.69;;;7.05;100.00
28354;BME280;15603;50.878;8.036;2023-02-02T14:10:39;144944.22;;;7.11;100.00
28354;BME280;15603;50.878;8.036;2023-02-02T14:16:01;144915.16;;;6.99;100.00
28354;BME280;15603;50.878;8.036;2023-02-02T14:24:03;144792.72;;;6.47;100.00
28354;BME280;15603;50.878;8.036;2023-02-02T14:26:46;144939.38;;;7.09;100.00
28354;BME280;15603;50.878;8.036;2023-02-02T14:34:38;144767.25;;;6.36;100.00
28354;BME280;15603;50.878;8.036;2023-02-02T14:37:20;144946.69;;;7.12;100.00
28354;BME280;15603;50.878;8.036;2023-02-02T14:48:39;144915.16;;;6.99;100.00
28354;BME280;15603;50.878;8.036;2023-02-02T14:51:16;144921.19;;;7.01;100.00
28354;BME280;15603;50.878;8.036;2023-02-02T14:53:49;144903.00;;;6.94;100.00
28354;BME280;15603;50.878;8.036;2023-02-02T14:56:20;144886.03;;;6.86;100.00
28354;BME280;15603;50.878;8.036;2023-02-02T14:59:03;144927.25;;;7.04;100.00
28354;BME280;15603;50.878;8.036;2023-02-02T15:01:33;144878.78;;;6.83;100.00
28354;BME280;15603;50.878;8.036;2023-02-02T15:06:43;144871.50;;;6.80;100.00
28354;BME280;15603;50.878;8.036;2023-02-02T15:25:24;144944.22;;;7.11;100.00
28354;BME280;15603;50.878;8.036;2023-02-02T15:30:43;144932.09;;;7.06;100.00
28354;BME280;15603;50.878;8.036;2023-02-02T15:33:28;144808.47;;;6.54;100.00
28354;BME280;15603;50.878;8.036;2023-02-02T15:35:58;144907.88;;;6.96;100.00
28354;BME280;15603;50.878;8.036;2023-02-02T15:38:32;144861.81;;;6.76;100.00
28354;BME280;15603;50.878;8.036;2023-02-02T15:41:10;144887.22;;;6.87;100.00
28354;BME280;15603;50.878;8.036;2023-02-02T15:43:38;144916.34;;;6.99;100.00